sensor_id;sensor_type;location;lat;lon;timestamp;temperature;humidity
21493;DHT22;10908;50.690;4.400;2022-11-15T00:01:32;11.30;93.90
21493;DHT22;10908;50.690;4.400;2022-11-15T00:03:57;11.30;93.90
21493;DHT22;10908;50.690;4.400;2022-11-15T00:06:23;11.40;93.90
21493;DHT22;10908;50.690;4.400;2022-11-15T00:08:48;11.40;93.90
21493;DHT22;10908;50.690;4.400;2022-11-15T00:11:14;11.40;93.90
21493;DHT22;10908;50.690;4.400;2022-11-15T00:13:40;11.40;93.80
21493;DHT22;10908;50.690;4.400;2022-11-15T00:16:06;11.40;93.80
21493;DHT22;10908;50.690;4.400;2022-11-15T00:18:32;11.40;93.80
21493;DHT22;10908;50.690;4.400;2022-11-15T00:21:04;11.40;93.80
21493;DHT22;10908;50.690;4.400;2022-11-15T00:23:31;11.40;93.80
21493;DHT22;10908;50.690;4.400;2022-11-15T00:25:58;11.40;93.80
21493;DHT22;10908;50.690;4.400;2022-11-15T00:28:24;11.40;93.80
21493;DHT22;10908;50.690;4.400;2022-11-15T00:30:50;11.40;93.80
21493;DHT22;10908;50.690;4.400;2022-11-15T00:33:16;11.40;93.80
21493;DHT22;10908;50.690;4.400;2022-11-15T00:35:42;11.50;93.80
21493;DHT22;10908;50.690;4.400;2022-11-15T00:38:07;11.50;93.80
21493;DHT22;10908;50.690;4.400;2022-11-15T00:40:33;11.40;93.80
21493;DHT22;10908;50.690;4.400;2022-11-15T00:42:59;11.50;93.80
21493;DHT22;10908;50.690;4.400;2022-11-15T00:45:25;11.50;93.80
21493;DHT22;10908;50.690;4.400;2022-11-15T00:47:51;11.50;93.80
21493;DHT22;10908;50.690;4.400;2022-11-15T00:50:16;11.50;93.70
21493;DHT22;10908;50.690;4.400;2022-11-15T00:52:42;11.50;93.70
21493;DHT22;10908;50.690;4.400;2022-11-15T00:55:13;11.50;93.70
21493;DHT22;10908;50.690;4.400;2022-11-15T00:57:40;11.60;93.70
21493;DHT22;10908;50.690;4.400;2022-11-15T01:00:06;11.60;93.70
21493;DHT22;10908;50.690;4.400;2022-11-15T01:02:32;11.60;93.80
21493;DHT22;10908;50.690;4.400;2022-11-15T01:04:58;11.60;93.70
21493;DHT22;10908;50.690;4.400;2022-11-15T01:07:23;11.60;93.70
21493;DHT22;10908;50.690;4.400;2022-11-15T01:09:49;11.60;93.70
21493;DHT22;10908;50.690;4.400;2022-11-15T01:12:14;11.60;93.70
21493;DHT22;10908;50.690;4.400;2022-11-15T01:14:40;11.60;93.70
21493;DHT22;10908;50.690;4.400;2022-11-15T01:17:06;11.50;93.80
21493;DHT22;10908;50.690;4.400;2022-11-15T01:19:32;11.60;93.70
21493;DHT22;10908;50.690;4.400;2022-11-15T01:21:57;11.60;93.70
21493;DHT22;10908;50.690;4.400;2022-11-15T01:24:23;11.60;93.70
21493;DHT22;10908;50.690;4.400;2022-11-15T01:26:48;11.60;93.70
21493;DHT22;10908;50.690;4.400;2022-11-15T01:29:14;11.60;93.70
21493;DHT22;10908;50.690;4.400;2022-11-15T01:31:40;11.60;93.60
21493;DHT22;10908;50.690;4.400;2022-11-15T01:34:05;11.60;93.60
21493;DHT22;10908;50.690;4.400;2022-11-15T01:36:31;11.60;93.60
21493;DHT22;10908;50.690;4.400;2022-11-15T01:38:58;11.60;93.60
21493;DHT22;10908;50.690;4.400;2022-11-15T01:41:26;11.50;93.60
21493;DHT22;10908;50.690;4.400;2022-11-15T01:43:55;11.50;93.60
21493;DHT22;10908;50.690;4.400;2022-11-15T01:48:47;11.50;93.50
21493;DHT22;10908;50.690;4.400;2022-11-15T01:51:16;11.50;93.60
21493;DHT22;10908;50.690;4.400;2022-11-15T01:53:47;11.60;93.50
21493;DHT22;10908;50.690;4.400;2022-11-15T01:56:18;11.60;93.50
21493;DHT22;10908;50.690;4.400;2022-11-15T01:58:45;11.60;93.50
21493;DHT22;10908;50.690;4.400;2022-11-15T02:01:12;11.60;93.50
21493;DHT22;10908;50.690;4.400;2022-11-15T02:03:59;11.60;93.50
21493;DHT22;10908;50.690;4.400;2022-11-15T02:06:26;11.60;93.50
21493;DHT22;10908;50.690;4.400;2022-11-15T02:08:52;11.50;93.60
21493;DHT22;10908;50.690;4.400;2022-11-15T02:11:18;11.40;93.60
21493;DHT22;10908;50.690;4.400;2022-11-15T02:13:44;11.50;93.60
21493;DHT22;10908;50.690;4.400;2022-11-15T02:19:13;11.50;93.70
21493;DHT22;10908;50.690;4.400;2022-11-15T02:21:44;11.50;93.70
21493;DHT22;10908;50.690;4.400;2022-11-15T02:35:57;11.50;93.70
21493;DHT22;10908;50.690;4.400;2022-11-15T02:38:44;11.50;93.60
21493;DHT22;10908;50.690;4.400;2022-11-15T02:41:22;11.50;93.60
21493;DHT22;10908;50.690;4.400;2022-11-15T02:43:59;11.50;93.60
21493;DHT22;10908;50.690;4.400;2022-11-15T02:46:32;11.50;93.50
21493;DHT22;10908;50.690;4.400;2022-11-15T02:49:17;11.40;93.50
21493;DHT22;10908;50.690;4.400;2022-11-15T02:51:45;11.40;93.50
21493;DHT22;10908;50.690;4.400;2022-11-15T02:54:23;11.40;93.40
21493;DHT22;10908;50.690;4.400;2022-11-15T02:56:51;11.40;93.40
21493;DHT22;10908;50.690;4.400;2022-11-15T03:04:55;11.40;93.20
21493;DHT22;10908;50.690;4.400;2022-11-15T03:07:52;11.30;93.10
21493;DHT22;10908;50.690;4.400;2022-11-15T03:16:15;11.40;92.90
21493;DHT22;10908;50.690;4.400;2022-11-15T03:18:45;11.40;92.80
21493;DHT22;10908;50.690;4.400;2022-11-15T03:21:14;11.30;92.70
21493;DHT22;10908;50.690;4.400;2022-11-15T03:23:41;11.30;92.60
21493;DHT22;10908;50.690;4.400;2022-11-15T03:26:11;11.30;92.50
21493;DHT22;10908;50.690;4.400;2022-11-15T03:28:52;11.30;92.40
21493;DHT22;10908;50.690;4.400;2022-11-15T03:31:19;11.30;92.30
21493;DHT22;10908;50.690;4.400;2022-11-15T03:34:06;11.30;92.30
21493;DHT22;10908;50.690;4.400;2022-11-15T03:36:33;11.30;92.30
21493;DHT22;10908;50.690;4.400;2022-11-15T03:39:02;11.20;92.30
21493;DHT22;10908;50.690;4.400;2022-11-15T03:41:55;11.30;92.10
21493;DHT22;10908;50.690;4.400;2022-11-15T03:47:18;11.20;91.70
21493;DHT22;10908;50.690;4.400;2022-11-15T03:49:51;11.20;91.40
21493;DHT22;10908;50.690;4.400;2022-11-15T03:52:19;11.20;91.20
21493;DHT22;10908;50.690;4.400;2022-11-15T03:54:54;11.10;91.00
21493;DHT22;10908;50.690;4.400;2022-11-15T03:57:21;11.00;90.90
21493;DHT22;10908;50.690;4.400;2022-11-15T03:59:46;11.10;90.90
21493;DHT22;10908;50.690;4.400;2022-11-15T04:02:13;11.00;90.90
21493;DHT22;10908;50.690;4.400;2022-11-15T04:04:39;11.00;90.90
21493;DHT22;10908;50.690;4.400;2022-11-15T04:07:05;11.10;90.80
21493;DHT22;10908;50.690;4.400;2022-11-15T04:09:30;11.10;90.80
21493;DHT22;10908;50.690;4.400;2022-11-15T04:11:56;11.10;90.70
21493;DHT22;10908;50.690;4.400;2022-11-15T04:14:22;11.00;90.50
21493;DHT22;10908;50.690;4.400;2022-11-15T04:16:47;11.10;90.50
21493;DHT22;10908;50.690;4.400;2022-11-15T04:19:13;11.00;90.40
21493;DHT22;10908;50.690;4.400;2022-11-15T04:21:57;10.90;90.50
21493;DHT22;10908;50.690;4.400;2022-11-15T04:24:41;11.00;90.40
21493;DHT22;10908;50.690;4.400;2022-11-15T04:27:06;10.90;90.40
21493;DHT22;10908;50.690;4.400;2022-11-15T04:29:32;10.90;90.40
21493;DHT22;10908;50.690;4.400;2022-11-15T04:32:05;10.90;90.30
21493;DHT22;10908;50.690;4.400;2022-11-15T04:34:31;10.90;90.20
21493;DHT22;10908;50.690;4.400;2022-11-15T04:36:58;10.80;90.20
21493;DHT22;10908;50.690;4.400;2022-11-15T04:39:42;10.80;90.20
21493;DHT22;10908;50.690;4.400;2022-11-15T04:42:09;10.80;90.10
21493;DHT22;10908;50.690;4.400;2022-11-15T04:44:34;10.80;90.20
21493;DHT22;10908;50.690;4.400;2022-11-15T04:47:01;10.80;90.00
21493;DHT22;10908;50.690;4.400;2022-11-15T04:49:26;10.70;90.00
21493;DHT22;10908;50.690;4.400;2022-11-15T04:51:52;10.60;90.10
21493;DHT22;10908;50.690;4.400;2022-11-15T04:54:18;10.70;90.10
21493;DHT22;10908;50.690;4.400;2022-11-15T04:56:43;10.60;90.00
21493;DHT22;10908;50.690;4.400;2022-11-15T04:59:09;10.60;90.10
21493;DHT22;10908;50.690;4.400;2022-11-15T05:01:35;10.60;90.10
21493;DHT22;10908;50.690;4.400;2022-11-15T05:04:00;10.60;90.00
21493;DHT22;10908;50.690;4.400;2022-11-15T05:06:44;10.60;89.90
21493;DHT22;10908;50.690;4.400;2022-11-15T05:09:11;10.50;90.00
21493;DHT22;10908;50.690;4.400;2022-11-15T05:11:38;10.50;89.90
21493;DHT22;10908;50.690;4.400;2022-11-15T05:14:04;10.50;90.00
21493;DHT22;10908;50.690;4.400;2022-11-15T05:16:29;10.50;89.90
21493;DHT22;10908;50.690;4.400;2022-11-15T05:18:55;10.50;89.90
21493;DHT22;10908;50.690;4.400;2022-11-15T05:21:21;10.30;90.00
21493;DHT22;10908;50.690;4.400;2022-11-15T05:23:47;10.30;90.10
21493;DHT22;10908;50.690;4.400;2022-11-15T05:26:13;10.20;90.10
21493;DHT22;10908;50.690;4.400;2022-11-15T05:28:40;10.00;90.10
21493;DHT22;10908;50.690;4.400;2022-11-15T05:31:10;10.00;90.20
21493;DHT22;10908;50.690;4.400;2022-11-15T05:33:38;10.00;90.40
21493;DHT22;10908;50.690;4.400;2022-11-15T05:38:42;9.90;90.50
21493;DHT22;10908;50.690;4.400;2022-11-15T05:41:08;9.90;90.60
21493;DHT22;10908;50.690;4.400;2022-11-15T05:43:36;9.90;90.60
21493;DHT22;10908;50.690;4.400;2022-11-15T05:46:04;9.80;90.80
21493;DHT22;10908;50.690;4.400;2022-11-15T05:48:31;9.70;90.90
21493;DHT22;10908;50.690;4.400;2022-11-15T05:50:57;9.80;91.10
21493;DHT22;10908;50.690;4.400;2022-11-15T05:53:24;9.90;91.20
21493;DHT22;10908;50.690;4.400;2022-11-15T05:55:50;9.90;91.30
21493;DHT22;10908;50.690;4.400;2022-11-15T05:58:17;10.00;91.20
21493;DHT22;10908;50.690;4.400;2022-11-15T06:00:42;10.10;91.10
21493;DHT22;10908;50.690;4.400;2022-11-15T06:03:09;10.20;91.00
21493;DHT22;10908;50.690;4.400;2022-11-15T06:05:34;10.20;90.80
21493;DHT22;10908;50.690;4.400;2022-11-15T06:08:00;10.20;90.70
21493;DHT22;10908;50.690;4.400;2022-11-15T06:10:26;10.10;90.60
21493;DHT22;10908;50.690;4.400;2022-11-15T06:13:02;10.00;90.50
21493;DHT22;10908;50.690;4.400;2022-11-15T06:15:28;10.00;90.30
21493;DHT22;10908;50.690;4.400;2022-11-15T06:17:56;9.90;90.10
21493;DHT22;10908;50.690;4.400;2022-11-15T06:20:24;9.80;90.30
21493;DHT22;10908;50.690;4.400;2022-11-15T06:22:49;9.80;90.40
21493;DHT22;10908;50.690;4.400;2022-11-15T06:25:15;9.70;90.40
21493;DHT22;10908;50.690;4.400;2022-11-15T06:27:41;9.70;90.50
21493;DHT22;10908;50.690;4.400;2022-11-15T06:30:07;9.60;90.60
21493;DHT22;10908;50.690;4.400;2022-11-15T06:32:33;9.50;90.50
21493;DHT22;10908;50.690;4.400;2022-11-15T06:34:59;9.40;90.60
21493;DHT22;10908;50.690;4.400;2022-11-15T06:37:24;9.40;90.60
21493;DHT22;10908;50.690;4.400;2022-11-15T06:39:50;9.40;90.70
21493;DHT22;10908;50.690;4.400;2022-11-15T06:42:16;9.30;90.80
21493;DHT22;10908;50.690;4.400;2022-11-15T06:44:41;9.30;90.80
21493;DHT22;10908;50.690;4.400;2022-11-15T06:47:07;9.30;90.80
21493;DHT22;10908;50.690;4.400;2022-11-15T06:49:33;9.20;90.80
21493;DHT22;10908;50.690;4.400;2022-11-15T06:51:58;9.10;90.80
21493;DHT22;10908;50.690;4.400;2022-11-15T06:54:24;9.10;91.00
21493;DHT22;10908;50.690;4.400;2022-11-15T06:56:49;9.10;91.00
21493;DHT22;10908;50.690;4.400;2022-11-15T06:59:15;9.10;91.10
21493;DHT22;10908;50.690;4.400;2022-11-15T07:01:41;9.10;91.10
21493;DHT22;10908;50.690;4.400;2022-11-15T07:04:06;9.10;91.00
21493;DHT22;10908;50.690;4.400;2022-11-15T07:06:32;9.10;91.10
21493;DHT22;10908;50.690;4.400;2022-11-15T07:08:57;9.10;91.00
21493;DHT22;10908;50.690;4.400;2022-11-15T07:11:23;9.00;90.80
21493;DHT22;10908;50.690;4.400;2022-11-15T07:13:49;9.10;90.80
21493;DHT22;10908;50.690;4.400;2022-11-15T07:16:14;9.10;90.70
21493;DHT22;10908;50.690;4.400;2022-11-15T07:18:40;9.00;90.90
21493;DHT22;10908;50.690;4.400;2022-11-15T07:21:10;9.00;90.90
21493;DHT22;10908;50.690;4.400;2022-11-15T07:23:37;9.10;90.70
21493;DHT22;10908;50.690;4.400;2022-11-15T07:26:03;9.10;90.80
21493;DHT22;10908;50.690;4.400;2022-11-15T07:28:29;9.00;91.00
21493;DHT22;10908;50.690;4.400;2022-11-15T07:30:54;9.00;91.00
21493;DHT22;10908;50.690;4.400;2022-11-15T07:33:20;9.00;91.00
21493;DHT22;10908;50.690;4.400;2022-11-15T07:35:46;9.00;91.00
21493;DHT22;10908;50.690;4.400;2022-11-15T07:38:15;9.10;91.00
21493;DHT22;10908;50.690;4.400;2022-11-15T07:40:44;9.20;90.90
21493;DHT22;10908;50.690;4.400;2022-11-15T07:43:10;9.20;90.70
21493;DHT22;10908;50.690;4.400;2022-11-15T07:45:42;9.20;90.60
21493;DHT22;10908;50.690;4.400;2022-11-15T07:48:08;9.30;90.50
21493;DHT22;10908;50.690;4.400;2022-11-15T07:50:33;9.10;90.50
21493;DHT22;10908;50.690;4.400;2022-11-15T07:52:59;9.20;90.40
21493;DHT22;10908;50.690;4.400;2022-11-15T07:55:27;9.30;90.40
21493;DHT22;10908;50.690;4.400;2022-11-15T07:58:03;9.30;90.40
21493;DHT22;10908;50.690;4.400;2022-11-15T08:00:29;9.40;90.20
21493;DHT22;10908;50.690;4.400;2022-11-15T08:03:05;9.40;90.20
21493;DHT22;10908;50.690;4.400;2022-11-15T08:05:32;9.30;90.10
21493;DHT22;10908;50.690;4.400;2022-11-15T08:07:58;9.50;90.10
21493;DHT22;10908;50.690;4.400;2022-11-15T08:10:24;9.50;89.80
21493;DHT22;10908;50.690;4.400;2022-11-15T08:13:16;9.50;89.70
21493;DHT22;10908;50.690;4.400;2022-11-15T08:15:42;9.60;89.60
21493;DHT22;10908;50.690;4.400;2022-11-15T08:18:11;9.60;89.30
21493;DHT22;10908;50.690;4.400;2022-11-15T08:20:37;9.70;89.10
21493;DHT22;10908;50.690;4.400;2022-11-15T08:23:04;9.80;88.80
21493;DHT22;10908;50.690;4.400;2022-11-15T08:25:31;9.70;88.30
21493;DHT22;10908;50.690;4.400;2022-11-15T08:28:02;9.70;88.30
21493;DHT22;10908;50.690;4.400;2022-11-15T08:30:28;9.80;88.20
21493;DHT22;10908;50.690;4.400;2022-11-15T08:32:56;9.80;88.00
21493;DHT22;10908;50.690;4.400;2022-11-15T08:35:22;9.70;88.10
21493;DHT22;10908;50.690;4.400;2022-11-15T08:37:49;9.80;88.00
21493;DHT22;10908;50.690;4.400;2022-11-15T08:40:15;9.80;88.00
21493;DHT22;10908;50.690;4.400;2022-11-15T08:42:41;9.80;87.90
21493;DHT22;10908;50.690;4.400;2022-11-15T08:45:07;9.90;87.70
21493;DHT22;10908;50.690;4.400;2022-11-15T08:47:34;9.90;87.40
21493;DHT22;10908;50.690;4.400;2022-11-15T08:49:59;9.80;87.30
21493;DHT22;10908;50.690;4.400;2022-11-15T08:52:25;9.90;87.20
21493;DHT22;10908;50.690;4.400;2022-11-15T08:54:51;9.80;87.00
21493;DHT22;10908;50.690;4.400;2022-11-15T08:57:17;9.90;87.10
21493;DHT22;10908;50.690;4.400;2022-11-15T08:59:42;9.90;87.10
21493;DHT22;10908;50.690;4.400;2022-11-15T09:02:14;9.80;87.10
21493;DHT22;10908;50.690;4.400;2022-11-15T09:04:43;9.90;87.10
21493;DHT22;10908;50.690;4.400;2022-11-15T09:07:10;10.10;87.10
21493;DHT22;10908;50.690;4.400;2022-11-15T09:09:37;10.10;87.00
21493;DHT22;10908;50.690;4.400;2022-11-15T09:12:04;10.20;86.70
21493;DHT22;10908;50.690;4.400;2022-11-15T09:14:29;10.20;86.50
21493;DHT22;10908;50.690;4.400;2022-11-15T09:16:55;10.20;86.20
21493;DHT22;10908;50.690;4.400;2022-11-15T09:19:21;10.30;86.30
21493;DHT22;10908;50.690;4.400;2022-11-15T09:21:46;10.40;86.10
21493;DHT22;10908;50.690;4.400;2022-11-15T09:24:12;10.40;85.70
21493;DHT22;10908;50.690;4.400;2022-11-15T09:26:37;10.40;85.50
21493;DHT22;10908;50.690;4.400;2022-11-15T09:29:03;10.40;85.50
21493;DHT22;10908;50.690;4.400;2022-11-15T09:31:29;10.40;85.30
21493;DHT22;10908;50.690;4.400;2022-11-15T09:33:57;10.50;85.10
21493;DHT22;10908;50.690;4.400;2022-11-15T09:36:22;10.50;84.80
21493;DHT22;10908;50.690;4.400;2022-11-15T09:38:48;10.60;84.70
21493;DHT22;10908;50.690;4.400;2022-11-15T09:49:09;10.80;84.20
21493;DHT22;10908;50.690;4.400;2022-11-15T09:51:40;10.70;83.80
21493;DHT22;10908;50.690;4.400;2022-11-15T09:56:44;10.60;83.90
21493;DHT22;10908;50.690;4.400;2022-11-15T10:05:03;10.70;83.80
21493;DHT22;10908;50.690;4.400;2022-11-15T10:10:28;10.80;83.60
21493;DHT22;10908;50.690;4.400;2022-11-15T10:12:55;10.80;83.60
21493;DHT22;10908;50.690;4.400;2022-11-15T10:15:21;10.90;83.30
21493;DHT22;10908;50.690;4.400;2022-11-15T10:20:30;11.10;82.90
21493;DHT22;10908;50.690;4.400;2022-11-15T10:23:05;11.20;82.50
21493;DHT22;10908;50.690;4.400;2022-11-15T10:25:33;11.10;82.10
21493;DHT22;10908;50.690;4.400;2022-11-15T10:28:16;11.20;82.10
21493;DHT22;10908;50.690;4.400;2022-11-15T10:30:44;11.20;81.60
21493;DHT22;10908;50.690;4.400;2022-11-15T10:41:17;11.30;81.80
21493;DHT22;10908;50.690;4.400;2022-11-15T10:43:44;11.40;81.90
21493;DHT22;10908;50.690;4.400;2022-11-15T10:46:22;11.50;81.60
21493;DHT22;10908;50.690;4.400;2022-11-15T10:48:48;11.60;81.40
21493;DHT22;10908;50.690;4.400;2022-11-15T10:51:25;11.70;81.20
21493;DHT22;10908;50.690;4.400;2022-11-15T10:53:54;11.80;80.70
21493;DHT22;10908;50.690;4.400;2022-11-15T10:56:24;11.80;79.60
21493;DHT22;10908;50.690;4.400;2022-11-15T10:58:52;11.80;79.20
21493;DHT22;10908;50.690;4.400;2022-11-15T11:01:27;11.90;79.10
21493;DHT22;10908;50.690;4.400;2022-11-15T11:04:03;11.90;79.20
21493;DHT22;10908;50.690;4.400;2022-11-15T11:06:29;12.00;78.60
21493;DHT22;10908;50.690;4.400;2022-11-15T11:08:59;12.00;78.70
21493;DHT22;10908;50.690;4.400;2022-11-15T11:11:43;12.00;78.60
21493;DHT22;10908;50.690;4.400;2022-11-15T11:14:17;12.20;78.50
21493;DHT22;10908;50.690;4.400;2022-11-15T11:16:55;12.20;78.30
21493;DHT22;10908;50.690;4.400;2022-11-15T11:28:24;12.40;77.90
21493;DHT22;10908;50.690;4.400;2022-11-15T11:33:22;12.40;77.50
21493;DHT22;10908;50.690;4.400;2022-11-15T11:41:38;12.30;78.70
21493;DHT22;10908;50.690;4.400;2022-11-15T11:49:32;12.20;78.80
21493;DHT22;10908;50.690;4.400;2022-11-15T11:52:17;12.20;79.30
21493;DHT22;10908;50.690;4.400;2022-11-15T11:57:39;12.20;79.60
21493;DHT22;10908;50.690;4.400;2022-11-15T12:02:47;12.30;79.50
21493;DHT22;10908;50.690;4.400;2022-11-15T12:05:26;12.30;79.40
21493;DHT22;10908;50.690;4.400;2022-11-15T12:08:01;12.30;79.70
21493;DHT22;10908;50.690;4.400;2022-11-15T12:10:30;12.40;79.80
21493;DHT22;10908;50.690;4.400;2022-11-15T12:13:09;12.40;79.70
21493;DHT22;10908;50.690;4.400;2022-11-15T12:15:47;12.40;79.80
21493;DHT22;10908;50.690;4.400;2022-11-15T12:18:16;12.40;80.30
21493;DHT22;10908;50.690;4.400;2022-11-15T12:20:54;12.40;80.20
21493;DHT22;10908;50.690;4.400;2022-11-15T12:23:26;12.40;80.60
21493;DHT22;10908;50.690;4.400;2022-11-15T12:31:00;12.40;80.80
21493;DHT22;10908;50.690;4.400;2022-11-15T12:33:40;12.40;80.90
21493;DHT22;10908;50.690;4.400;2022-11-15T12:36:11;12.40;80.70
21493;DHT22;10908;50.690;4.400;2022-11-15T12:39:07;12.40;80.80
21493;DHT22;10908;50.690;4.400;2022-11-15T12:41:36;12.40;80.70
21493;DHT22;10908;50.690;4.400;2022-11-15T12:44:04;12.60;80.60
21493;DHT22;10908;50.690;4.400;2022-11-15T12:48:59;12.70;80.40
21493;DHT22;10908;50.690;4.400;2022-11-15T12:59:52;13.00;80.20
21493;DHT22;10908;50.690;4.400;2022-11-15T13:17:47;13.00;80.40
21493;DHT22;10908;50.690;4.400;2022-11-15T13:27:54;12.80;80.20
21493;DHT22;10908;50.690;4.400;2022-11-15T13:30:28;12.90;79.80
21493;DHT22;10908;50.690;4.400;2022-11-15T13:32:55;12.80;80.20
21493;DHT22;10908;50.690;4.400;2022-11-15T13:35:24;12.80;80.50
21493;DHT22;10908;50.690;4.400;2022-11-15T13:37:51;12.90;80.40
21493;DHT22;10908;50.690;4.400;2022-11-15T13:40:26;12.80;80.40
21493;DHT22;10908;50.690;4.400;2022-11-15T13:42:56;12.90;80.40
21493;DHT22;10908;50.690;4.400;2022-11-15T13:45:22;12.80;80.40
21493;DHT22;10908;50.690;4.400;2022-11-15T13:47:53;12.80;80.20
21493;DHT22;10908;50.690;4.400;2022-11-15T13:50:21;12.80;80.40
21493;DHT22;10908;50.690;4.400;2022-11-15T13:52:48;12.90;80.50
21493;DHT22;10908;50.690;4.400;2022-11-15T13:55:17;12.80;80.40
21493;DHT22;10908;50.690;4.400;2022-11-15T13:57:53;12.80;80.40
21493;DHT22;10908;50.690;4.400;2022-11-15T14:00:33;12.70;80.60
21493;DHT22;10908;50.690;4.400;2022-11-15T14:03:23;12.80;80.50
21493;DHT22;10908;50.690;4.400;2022-11-15T14:06:11;12.70;80.60
21493;DHT22;10908;50.690;4.400;2022-11-15T14:08:42;12.80;80.90
21493;DHT22;10908;50.690;4.400;2022-11-15T14:11:15;12.70;81.30
21493;DHT22;10908;50.690;4.400;2022-11-15T14:13:41;12.70;81.30
21493;DHT22;10908;50.690;4.400;2022-11-15T14:16:20;12.70;81.30
21493;DHT22;10908;50.690;4.400;2022-11-15T14:18:50;12.70;81.50
21493;DHT22;10908;50.690;4.400;2022-11-15T14:21:18;12.70;81.50
21493;DHT22;10908;50.690;4.400;2022-11-15T14:23:44;12.70;81.80
21493;DHT22;10908;50.690;4.400;2022-11-15T14:26:33;12.70;82.00
21493;DHT22;10908;50.690;4.400;2022-11-15T14:29:28;12.70;82.30
21493;DHT22;10908;50.690;4.400;2022-11-15T14:35:02;12.60;83.20
21493;DHT22;10908;50.690;4.400;2022-11-15T14:39:54;12.60;83.70
21493;DHT22;10908;50.690;4.400;2022-11-15T14:42:21;12.60;83.80
21493;DHT22;10908;50.690;4.400;2022-11-15T14:44:47;12.60;83.70
21493;DHT22;10908;50.690;4.400;2022-11-15T14:47:13;12.60;83.60
21493;DHT22;10908;50.690;4.400;2022-11-15T14:49:39;12.60;83.60
21493;DHT22;10908;50.690;4.400;2022-11-15T14:52:26;12.60;83.40
21493;DHT22;10908;50.690;4.400;2022-11-15T14:54:53;12.60;83.80
21493;DHT22;10908;50.690;4.400;2022-11-15T14:57:19;12.60;84.00
21493;DHT22;10908;50.690;4.400;2022-11-15T14:59:45;12.60;84.40
21493;DHT22;10908;50.690;4.400;2022-11-15T15:02:22;12.50;84.60
21493;DHT22;10908;50.690;4.400;2022-11-15T15:04:49;12.50;84.80
21493;DHT22;10908;50.690;4.400;2022-11-15T15:07:15;12.50;85.20
21493;DHT22;10908;50.690;4.400;2022-11-15T15:09:42;12.50;85.50
21493;DHT22;10908;50.690;4.400;2022-11-15T15:12:33;12.40;85.80
21493;DHT22;10908;50.690;4.400;2022-11-15T15:14:59;12.40;86.20
21493;DHT22;10908;50.690;4.400;2022-11-15T15:17:25;12.30;86.60
21493;DHT22;10908;50.690;4.400;2022-11-15T15:19:50;12.20;87.00
21493;DHT22;10908;50.690;4.400;2022-11-15T15:22:17;12.30;87.10
21493;DHT22;10908;50.690;4.400;2022-11-15T15:24:45;12.30;87.40
21493;DHT22;10908;50.690;4.400;2022-11-15T15:27:11;12.30;87.50
21493;DHT22;10908;50.690;4.400;2022-11-15T15:29:38;12.30;87.60
21493;DHT22;10908;50.690;4.400;2022-11-15T15:32:04;12.30;87.70
21493;DHT22;10908;50.690;4.400;2022-11-15T15:34:29;12.30;87.80
21493;DHT22;10908;50.690;4.400;2022-11-15T15:37:25;12.30;87.90
21493;DHT22;10908;50.690;4.400;2022-11-15T15:39:52;12.20;88.10
21493;DHT22;10908;50.690;4.400;2022-11-15T15:42:19;12.20;88.40
21493;DHT22;10908;50.690;4.400;2022-11-15T15:56:16;12.20;88.60
21493;DHT22;10908;50.690;4.400;2022-11-15T15:58:41;12.30;88.90
21493;DHT22;10908;50.690;4.400;2022-11-15T16:01:07;12.20;89.10
21493;DHT22;10908;50.690;4.400;2022-11-15T16:03:32;12.20;89.40
21493;DHT22;10908;50.690;4.400;2022-11-15T16:05:58;12.10;89.70
21493;DHT22;10908;50.690;4.400;2022-11-15T16:08:24;12.20;89.80
21493;DHT22;10908;50.690;4.400;2022-11-15T16:10:52;12.20;89.70
21493;DHT22;10908;50.690;4.400;2022-11-15T16:13:17;12.20;89.80
21493;DHT22;10908;50.690;4.400;2022-11-15T16:15:43;12.20;89.90
21493;DHT22;10908;50.690;4.400;2022-11-15T16:18:15;12.10;90.00
21493;DHT22;10908;50.690;4.400;2022-11-15T16:20:46;12.10;90.20
21493;DHT22;10908;50.690;4.400;2022-11-15T16:23:17;12.10;90.30
21493;DHT22;10908;50.690;4.400;2022-11-15T16:25:51;12.10;90.50
21493;DHT22;10908;50.690;4.400;2022-11-15T16:28:29;12.00;90.60
21493;DHT22;10908;50.690;4.400;2022-11-15T16:31:11;12.00;90.70
21493;DHT22;10908;50.690;4.400;2022-11-15T16:33:37;12.00;90.80
21493;DHT22;10908;50.690;4.400;2022-11-15T16:36:05;12.00;91.00
21493;DHT22;10908;50.690;4.400;2022-11-15T16:38:31;12.00;91.00
21493;DHT22;10908;50.690;4.400;2022-11-15T16:40:57;12.00;91.00
21493;DHT22;10908;50.690;4.400;2022-11-15T16:43:22;12.00;91.10
21493;DHT22;10908;50.690;4.400;2022-11-15T16:45:49;12.10;91.20
21493;DHT22;10908;50.690;4.400;2022-11-15T16:48:23;12.00;91.10
21493;DHT22;10908;50.690;4.400;2022-11-15T16:50:50;11.90;91.10
21493;DHT22;10908;50.690;4.400;2022-11-15T16:53:16;12.00;91.20
21493;DHT22;10908;50.690;4.400;2022-11-15T16:55:41;12.10;91.20
21493;DHT22;10908;50.690;4.400;2022-11-15T16:58:08;12.10;91.20
21493;DHT22;10908;50.690;4.400;2022-11-15T17:00:34;12.00;91.30
21493;DHT22;10908;50.690;4.400;2022-11-15T17:02:59;12.00;91.50
21493;DHT22;10908;50.690;4.400;2022-11-15T17:05:25;12.00;91.60
21493;DHT22;10908;50.690;4.400;2022-11-15T17:07:52;12.00;91.80
21493;DHT22;10908;50.690;4.400;2022-11-15T17:10:22;12.00;91.80
21493;DHT22;10908;50.690;4.400;2022-11-15T17:12:49;11.90;91.90
21493;DHT22;10908;50.690;4.400;2022-11-15T17:15:15;12.00;91.90
21493;DHT22;10908;50.690;4.400;2022-11-15T17:17:41;12.00;91.90
21493;DHT22;10908;50.690;4.400;2022-11-15T17:20:16;12.00;92.00
21493;DHT22;10908;50.690;4.400;2022-11-15T17:22:42;12.00;92.00
21493;DHT22;10908;50.690;4.400;2022-11-15T17:25:08;11.90;92.00
21493;DHT22;10908;50.690;4.400;2022-11-15T17:27:34;11.90;92.00
21493;DHT22;10908;50.690;4.400;2022-11-15T17:29:59;12.00;92.10
21493;DHT22;10908;50.690;4.400;2022-11-15T17:32:25;12.00;92.10
21493;DHT22;10908;50.690;4.400;2022-11-15T17:34:50;12.00;92.10
21493;DHT22;10908;50.690;4.400;2022-11-15T17:37:16;12.00;92.10
21493;DHT22;10908;50.690;4.400;2022-11-15T17:39:42;12.10;92.10
21493;DHT22;10908;50.690;4.400;2022-11-15T17:42:07;12.10;92.00
21493;DHT22;10908;50.690;4.400;2022-11-15T17:44:33;12.10;92.00
21493;DHT22;10908;50.690;4.400;2022-11-15T17:46:58;12.10;91.90
21493;DHT22;10908;50.690;4.400;2022-11-15T17:49:24;12.10;91.90
21493;DHT22;10908;50.690;4.400;2022-11-15T17:51:50;12.10;92.00
21493;DHT22;10908;50.690;4.400;2022-11-15T17:54:16;12.00;92.00
21493;DHT22;10908;50.690;4.400;2022-11-15T17:56:42;12.00;92.20
21493;DHT22;10908;50.690;4.400;2022-11-15T17:59:08;12.10;92.20
21493;DHT22;10908;50.690;4.400;2022-11-15T18:02:11;12.10;92.10
21493;DHT22;10908;50.690;4.400;2022-11-15T18:04:36;12.00;92.20
21493;DHT22;10908;50.690;4.400;2022-11-15T18:07:02;12.10;92.10
21493;DHT22;10908;50.690;4.400;2022-11-15T18:09:28;12.10;92.10
21493;DHT22;10908;50.690;4.400;2022-11-15T18:11:53;12.10;92.20
21493;DHT22;10908;50.690;4.400;2022-11-15T18:14:19;12.10;92.30